Analomink, PA

4:03 PM EDT on May 06, 2015 (GMT -0400)
Penn Estates | | Change Station
CLOSE
Current Station
Personal Weather Station
Location: East Stroudsburg, PA
Elevation: 920 ft
Nearby Weather Stations

Elev 920 ft 41.02 °N, 75.25 °W | Updated 3 minutes ago

Overcast
Overcast
64.0 °F
Feels Like 64.0 °F
N
1.0
Wind Variable Wind from ENE
Gusts 2.0 mph

Today
High -- | Low -- °F
--% Chance of Precip.
Yesterday
High -- | Low -- °F
Precip. -- in
5:52 AM 8:02 PM
Waning Gibbous, 92% visible
Pressure 30.27 in
Visibility 10.0 miles
Clouds Overcast 3600 ft
Dew Point 53 °F
Humidity 68%
Rainfall 0.14 in
Snow Depth Not available.
UV 2 out of 12
Pollen 5.80 out of 12
Air Quality Not available.
Flu Activity Sporadic
METAR KMPO 061953Z AUTO 00000KT 10SM OVC036 15/07 A3027 RMK AO2 SLP248 T01500072

More Conditions Fewer Conditions

Pressure 30.27 in
Visibility 10.0 miles
Clouds Overcast 3600 ft
Dew Point 53 °F
Humidity 68%
Rainfall 0.14 in
Snow Depth Not available.
UV 2 out of 12
Pollen 5.80 out of 12
Air Quality Not available.
Flu Activity Sporadic
METAR KMPO 061953Z AUTO 00000KT 10SM OVC036 15/07 A3027 RMK AO2 SLP248 T01500072

More Conditions Fewer Conditions

Nowcast | as of 1:42 PM EDT on May 6, 2015

Between now and 400 PM, scattered light rain showers will continue to affect much of eastern Pennsylvania. Additional rainfall should be less than a tenth of an inch.

×

10-Day Weather Forecast

Almanac

Astronomy

May. 06, 2015 Rise Set
Actual Time
Civil Twilight
Nautical Twilight
Astronomical Twilight
Moon
Length of Visible Light
Length of Day
Tomorrow will be .
, % of the Moon is Illuminated

Today's Extremes

State Highs State Lows

Community

WunderPhotos

Upload Photos

1,819,006 photos uploaded!

WunderBlogs® & News

Nearby

Air Quality

  Air Quality AQ Index Pollutant
Not available.

Snow Depth

Station Depth Elevation

Earthquake Activity

City Distance Mag. Time & Date
Minimum magnitude displayed is 2.5.

Coastal Water Temperatures

Place Temperature

Stations

Nearby Weather Stations

Station Location Temp. Windchill Dew Point Humidity Wind Precip. Elev Updated Type